sensor_id;sensor_type;location;lat;lon;timestamp;P1;durP1;ratioP1;P2;durP2;ratioP2
75216;SDS011;63800;51.972;5.682;2023-07-20T00:02:15;11.23;;;7.55;;
75216;SDS011;63800;51.972;5.682;2023-07-20T00:04:40;9.93;;;8.25;;
75216;SDS011;63800;51.972;5.682;2023-07-20T00:07:06;10.60;;;8.00;;
75216;SDS011;63800;51.972;5.682;2023-07-20T00:09:31;9.75;;;7.80;;
75216;SDS011;63800;51.972;5.682;2023-07-20T00:11:57;10.68;;;8.25;;
75216;SDS011;63800;51.972;5.682;2023-07-20T00:14:24;10.13;;;7.85;;
75216;SDS011;63800;51.972;5.682;2023-07-20T00:16:50;10.13;;;7.80;;
75216;SDS011;63800;51.972;5.682;2023-07-20T00:19:24;11.10;;;8.15;;
75216;SDS011;63800;51.972;5.682;2023-07-20T00:21:51;10.25;;;7.93;;
75216;SDS011;63800;51.972;5.682;2023-07-20T00:24:17;8.63;;;7.50;;
75216;SDS011;63800;51.972;5.682;2023-07-20T00:26:43;10.82;;;7.68;;
75216;SDS011;63800;51.972;5.682;2023-07-20T00:29:09;9.35;;;8.05;;
75216;SDS011;63800;51.972;5.682;2023-07-20T00:31:35;10.07;;;7.72;;
75216;SDS011;63800;51.972;5.682;2023-07-20T00:34:02;11.32;;;7.85;;
75216;SDS011;63800;51.972;5.682;2023-07-20T00:36:28;11.15;;;7.78;;
75216;SDS011;63800;51.972;5.682;2023-07-20T00:38:54;10.85;;;7.50;;
75216;SDS011;63800;51.972;5.682;2023-07-20T00:41:19;11.35;;;7.80;;
75216;SDS011;63800;51.972;5.682;2023-07-20T00:43:45;10.40;;;7.60;;
75216;SDS011;63800;51.972;5.682;2023-07-20T00:46:10;10.60;;;8.05;;
75216;SDS011;63800;51.972;5.682;2023-07-20T00:48:36;10.90;;;7.97;;
75216;SDS011;63800;51.972;5.682;2023-07-20T00:51:02;8.95;;;6.93;;
75216;SDS011;63800;51.972;5.682;2023-07-20T00:53:28;9.50;;;6.90;;
75216;SDS011;63800;51.972;5.682;2023-07-20T00:55:54;10.45;;;7.60;;
75216;SDS011;63800;51.972;5.682;2023-07-20T00:58:20;10.85;;;7.68;;
75216;SDS011;63800;51.972;5.682;2023-07-20T01:00:45;9.48;;;7.22;;
75216;SDS011;63800;51.972;5.682;2023-07-20T01:03:13;9.07;;;6.72;;
75216;SDS011;63800;51.972;5.682;2023-07-20T01:05:46;7.93;;;6.55;;
75216;SDS011;63800;51.972;5.682;2023-07-20T01:11:36;8.20;;;6.28;;
75216;SDS011;63800;51.972;5.682;2023-07-20T01:14:05;7.10;;;5.88;;
75216;SDS011;63800;51.972;5.682;2023-07-20T01:16:32;7.03;;;5.75;;
75216;SDS011;63800;51.972;5.682;2023-07-20T01:18:58;8.57;;;5.95;;
75216;SDS011;63800;51.972;5.682;2023-07-20T01:30:59;5.97;;;4.80;;
75216;SDS011;63800;51.972;5.682;2023-07-20T01:33:38;6.32;;;4.82;;
75216;SDS011;63800;51.972;5.682;2023-07-20T01:36:05;5.32;;;4.65;;
75216;SDS011;63800;51.972;5.682;2023-07-20T01:38:32;6.00;;;4.88;;
75216;SDS011;63800;51.972;5.682;2023-07-20T01:40:57;5.47;;;4.72;;
75216;SDS011;63800;51.972;5.682;2023-07-20T01:43:23;5.35;;;4.13;;
75216;SDS011;63800;51.972;5.682;2023-07-20T01:45:49;4.57;;;3.70;;
75216;SDS011;63800;51.972;5.682;2023-07-20T01:48:14;4.75;;;3.63;;
75216;SDS011;63800;51.972;5.682;2023-07-20T01:50:40;3.70;;;3.40;;
75216;SDS011;63800;51.972;5.682;2023-07-20T01:53:05;5.00;;;3.30;;
75216;SDS011;63800;51.972;5.682;2023-07-20T01:55:31;3.67;;;3.28;;
75216;SDS011;63800;51.972;5.682;2023-07-20T01:57:57;4.70;;;3.47;;
75216;SDS011;63800;51.972;5.682;2023-07-20T02:00:25;3.92;;;3.15;;
75216;SDS011;63800;51.972;5.682;2023-07-20T02:02:50;5.30;;;3.42;;
75216;SDS011;63800;51.972;5.682;2023-07-20T02:05:16;4.88;;;3.33;;
75216;SDS011;63800;51.972;5.682;2023-07-20T02:07:42;4.10;;;3.35;;
75216;SDS011;63800;51.972;5.682;2023-07-20T02:10:08;4.32;;;3.33;;
75216;SDS011;63800;51.972;5.682;2023-07-20T02:12:33;3.85;;;3.45;;
75216;SDS011;63800;51.972;5.682;2023-07-20T02:14:59;4.18;;;3.75;;
75216;SDS011;63800;51.972;5.682;2023-07-20T02:17:24;4.85;;;2.90;;
75216;SDS011;63800;51.972;5.682;2023-07-20T02:19:52;3.50;;;3.17;;
75216;SDS011;63800;51.972;5.682;2023-07-20T02:22:18;3.47;;;3.10;;
75216;SDS011;63800;51.972;5.682;2023-07-20T02:24:44;3.47;;;3.03;;
75216;SDS011;63800;51.972;5.682;2023-07-20T02:27:09;4.00;;;3.42;;
75216;SDS011;63800;51.972;5.682;2023-07-20T02:29:35;4.20;;;3.25;;
75216;SDS011;63800;51.972;5.682;2023-07-20T02:32:01;4.07;;;3.08;;
75216;SDS011;63800;51.972;5.682;2023-07-20T02:34:26;3.33;;;2.88;;
75216;SDS011;63800;51.972;5.682;2023-07-20T02:36:52;3.60;;;3.13;;
75216;SDS011;63800;51.972;5.682;2023-07-20T02:39:17;3.55;;;2.90;;
75216;SDS011;63800;51.972;5.682;2023-07-20T02:41:43;3.28;;;2.97;;
75216;SDS011;63800;51.972;5.682;2023-07-20T02:44:09;3.60;;;2.95;;
75216;SDS011;63800;51.972;5.682;2023-07-20T02:46:34;3.85;;;2.80;;
75216;SDS011;63800;51.972;5.682;2023-07-20T02:49:00;3.55;;;2.72;;
75216;SDS011;63800;51.972;5.682;2023-07-20T02:51:26;4.10;;;3.17;;
75216;SDS011;63800;51.972;5.682;2023-07-20T02:53:51;3.65;;;3.33;;
75216;SDS011;63800;51.972;5.682;2023-07-20T02:56:16;4.18;;;3.25;;
75216;SDS011;63800;51.972;5.682;2023-07-20T02:58:43;4.60;;;3.13;;
75216;SDS011;63800;51.972;5.682;2023-07-20T03:01:09;3.97;;;3.58;;
75216;SDS011;63800;51.972;5.682;2023-07-20T03:03:36;3.92;;;3.40;;
75216;SDS011;63800;51.972;5.682;2023-07-20T03:06:06;4.05;;;3.50;;
75216;SDS011;63800;51.972;5.682;2023-07-20T03:08:34;3.63;;;3.33;;
75216;SDS011;63800;51.972;5.682;2023-07-20T03:11:00;3.92;;;3.40;;
75216;SDS011;63800;51.972;5.682;2023-07-20T03:13:26;3.55;;;3.25;;
75216;SDS011;63800;51.972;5.682;2023-07-20T03:15:52;3.97;;;3.38;;
75216;SDS011;63800;51.972;5.682;2023-07-20T03:18:18;4.25;;;3.30;;
75216;SDS011;63800;51.972;5.682;2023-07-20T03:20:43;4.63;;;3.60;;
75216;SDS011;63800;51.972;5.682;2023-07-20T03:23:09;3.72;;;3.10;;
75216;SDS011;63800;51.972;5.682;2023-07-20T03:25:35;4.10;;;3.55;;
75216;SDS011;63800;51.972;5.682;2023-07-20T03:28:02;3.97;;;3.45;;
75216;SDS011;63800;51.972;5.682;2023-07-20T03:30:28;4.15;;;3.53;;
75216;SDS011;63800;51.972;5.682;2023-07-20T03:32:54;4.70;;;3.58;;
75216;SDS011;63800;51.972;5.682;2023-07-20T03:35:19;3.80;;;3.10;;
75216;SDS011;63800;51.972;5.682;2023-07-20T03:37:44;3.92;;;3.38;;
75216;SDS011;63800;51.972;5.682;2023-07-20T03:40:10;3.67;;;3.25;;
75216;SDS011;63800;51.972;5.682;2023-07-20T03:42:36;4.20;;;3.35;;
75216;SDS011;63800;51.972;5.682;2023-07-20T03:45:01;4.00;;;3.60;;
75216;SDS011;63800;51.972;5.682;2023-07-20T03:47:27;5.13;;;4.03;;
75216;SDS011;63800;51.972;5.682;2023-07-20T03:49:53;4.85;;;4.30;;
75216;SDS011;63800;51.972;5.682;2023-07-20T03:52:19;5.25;;;4.35;;
75216;SDS011;63800;51.972;5.682;2023-07-20T03:54:44;5.70;;;4.80;;
75216;SDS011;63800;51.972;5.682;2023-07-20T03:57:10;6.05;;;5.00;;
75216;SDS011;63800;51.972;5.682;2023-07-20T03:59:36;5.63;;;4.90;;
75216;SDS011;63800;51.972;5.682;2023-07-20T04:02:04;5.32;;;4.55;;
75216;SDS011;63800;51.972;5.682;2023-07-20T04:04:30;5.57;;;4.18;;
75216;SDS011;63800;51.972;5.682;2023-07-20T04:06:56;3.70;;;3.30;;
75216;SDS011;63800;51.972;5.682;2023-07-20T04:09:21;3.10;;;2.80;;
75216;SDS011;63800;51.972;5.682;2023-07-20T04:11:47;3.20;;;2.90;;
75216;SDS011;63800;51.972;5.682;2023-07-20T04:14:12;3.17;;;2.88;;
75216;SDS011;63800;51.972;5.682;2023-07-20T04:16:38;3.05;;;2.75;;
75216;SDS011;63800;51.972;5.682;2023-07-20T04:19:03;3.15;;;2.85;;
75216;SDS011;63800;51.972;5.682;2023-07-20T04:21:29;3.88;;;3.38;;
75216;SDS011;63800;51.972;5.682;2023-07-20T04:23:54;3.22;;;2.90;;
75216;SDS011;63800;51.972;5.682;2023-07-20T04:26:19;2.83;;;2.63;;
75216;SDS011;63800;51.972;5.682;2023-07-20T04:28:45;4.15;;;3.75;;
75216;SDS011;63800;51.972;5.682;2023-07-20T04:31:14;4.25;;;3.47;;
75216;SDS011;63800;51.972;5.682;2023-07-20T04:33:40;4.72;;;3.90;;
75216;SDS011;63800;51.972;5.682;2023-07-20T04:36:06;4.80;;;4.00;;
75216;SDS011;63800;51.972;5.682;2023-07-20T04:38:32;5.40;;;4.18;;
75216;SDS011;63800;51.972;5.682;2023-07-20T04:40:58;5.78;;;4.78;;
75216;SDS011;63800;51.972;5.682;2023-07-20T04:43:23;5.28;;;4.03;;
75216;SDS011;63800;51.972;5.682;2023-07-20T04:45:49;7.30;;;4.38;;
75216;SDS011;63800;51.972;5.682;2023-07-20T04:48:15;4.35;;;3.95;;
75216;SDS011;63800;51.972;5.682;2023-07-20T04:50:42;4.18;;;3.75;;
75216;SDS011;63800;51.972;5.682;2023-07-20T04:53:10;4.13;;;3.65;;
75216;SDS011;63800;51.972;5.682;2023-07-20T04:55:36;4.28;;;3.63;;
75216;SDS011;63800;51.972;5.682;2023-07-20T04:58:02;4.00;;;3.65;;
75216;SDS011;63800;51.972;5.682;2023-07-20T05:00:29;4.63;;;3.90;;
75216;SDS011;63800;51.972;5.682;2023-07-20T05:02:55;4.50;;;3.92;;
75216;SDS011;63800;51.972;5.682;2023-07-20T05:05:20;5.68;;;4.20;;
75216;SDS011;63800;51.972;5.682;2023-07-20T05:07:46;7.38;;;4.40;;
75216;SDS011;63800;51.972;5.682;2023-07-20T05:10:12;4.38;;;3.97;;
75216;SDS011;63800;51.972;5.682;2023-07-20T05:12:37;4.50;;;4.00;;
75216;SDS011;63800;51.972;5.682;2023-07-20T05:15:03;5.30;;;4.20;;
75216;SDS011;63800;51.972;5.682;2023-07-20T05:17:29;4.47;;;4.07;;
75216;SDS011;63800;51.972;5.682;2023-07-20T05:19:54;5.53;;;4.45;;
75216;SDS011;63800;51.972;5.682;2023-07-20T05:22:20;5.93;;;4.25;;
75216;SDS011;63800;51.972;5.682;2023-07-20T05:24:45;5.70;;;4.28;;
75216;SDS011;63800;51.972;5.682;2023-07-20T05:27:11;5.30;;;4.15;;
75216;SDS011;63800;51.972;5.682;2023-07-20T05:29:37;4.65;;;4.15;;
75216;SDS011;63800;51.972;5.682;2023-07-20T05:32:02;6.10;;;4.35;;
75216;SDS011;63800;51.972;5.682;2023-07-20T05:34:28;5.40;;;4.03;;
75216;SDS011;63800;51.972;5.682;2023-07-20T05:36:54;4.32;;;3.75;;
75216;SDS011;63800;51.972;5.682;2023-07-20T05:39:20;5.18;;;4.68;;
75216;SDS011;63800;51.972;5.682;2023-07-20T05:41:45;4.60;;;4.05;;
75216;SDS011;63800;51.972;5.682;2023-07-20T05:44:11;4.45;;;4.03;;
75216;SDS011;63800;51.972;5.682;2023-07-20T05:46:37;7.38;;;4.50;;
75216;SDS011;63800;51.972;5.682;2023-07-20T05:49:02;4.82;;;4.25;;
75216;SDS011;63800;51.972;5.682;2023-07-20T05:51:28;4.47;;;4.07;;
75216;SDS011;63800;51.972;5.682;2023-07-20T05:53:53;5.20;;;4.40;;
75216;SDS011;63800;51.972;5.682;2023-07-20T05:56:19;5.50;;;5.00;;
75216;SDS011;63800;51.972;5.682;2023-07-20T05:58:44;6.47;;;5.45;;
75216;SDS011;63800;51.972;5.682;2023-07-20T06:01:09;6.68;;;4.97;;
75216;SDS011;63800;51.972;5.682;2023-07-20T06:03:35;8.07;;;5.60;;
75216;SDS011;63800;51.972;5.682;2023-07-20T06:06:02;6.28;;;5.40;;
75216;SDS011;63800;51.972;5.682;2023-07-20T06:08:29;6.18;;;5.38;;
75216;SDS011;63800;51.972;5.682;2023-07-20T06:10:57;5.75;;;5.03;;
75216;SDS011;63800;51.972;5.682;2023-07-20T06:13:23;5.72;;;5.13;;
75216;SDS011;63800;51.972;5.682;2023-07-20T06:15:49;6.85;;;5.47;;
75216;SDS011;63800;51.972;5.682;2023-07-20T06:18:14;7.50;;;6.20;;
75216;SDS011;63800;51.972;5.682;2023-07-20T06:20:40;6.53;;;5.75;;
75216;SDS011;63800;51.972;5.682;2023-07-20T06:23:05;6.63;;;5.85;;
75216;SDS011;63800;51.972;5.682;2023-07-20T06:25:31;6.10;;;5.50;;
75216;SDS011;63800;51.972;5.682;2023-07-20T06:27:56;6.50;;;5.57;;
75216;SDS011;63800;51.972;5.682;2023-07-20T06:30:22;6.13;;;5.53;;
75216;SDS011;63800;51.972;5.682;2023-07-20T06:32:48;6.07;;;5.30;;
75216;SDS011;63800;51.972;5.682;2023-07-20T06:35:13;6.50;;;5.90;;
75216;SDS011;63800;51.972;5.682;2023-07-20T06:37:39;6.97;;;5.40;;
75216;SDS011;63800;51.972;5.682;2023-07-20T06:40:05;7.30;;;5.63;;
75216;SDS011;63800;51.972;5.682;2023-07-20T06:42:31;5.65;;;5.05;;
75216;SDS011;63800;51.972;5.682;2023-07-20T06:44:57;5.72;;;5.15;;
75216;SDS011;63800;51.972;5.682;2023-07-20T06:47:23;6.55;;;5.18;;
75216;SDS011;63800;51.972;5.682;2023-07-20T06:49:48;5.95;;;5.20;;
75216;SDS011;63800;51.972;5.682;2023-07-20T06:52:14;5.43;;;4.70;;
75216;SDS011;63800;51.972;5.682;2023-07-20T06:54:40;4.13;;;3.72;;
75216;SDS011;63800;51.972;5.682;2023-07-20T06:57:05;4.20;;;3.72;;
75216;SDS011;63800;51.972;5.682;2023-07-20T06:59:31;4.30;;;3.90;;
75216;SDS011;63800;51.972;5.682;2023-07-20T07:01:56;6.00;;;4.53;;
75216;SDS011;63800;51.972;5.682;2023-07-20T07:04:22;5.60;;;4.80;;
75216;SDS011;63800;51.972;5.682;2023-07-20T07:06:47;5.28;;;4.30;;
75216;SDS011;63800;51.972;5.682;2023-07-20T07:09:13;4.75;;;4.22;;
75216;SDS011;63800;51.972;5.682;2023-07-20T07:11:39;4.57;;;4.13;;
75216;SDS011;63800;51.972;5.682;2023-07-20T07:14:04;5.30;;;3.97;;
75216;SDS011;63800;51.972;5.682;2023-07-20T07:16:30;5.43;;;4.43;;
75216;SDS011;63800;51.972;5.682;2023-07-20T07:18:55;4.60;;;3.90;;
75216;SDS011;63800;51.972;5.682;2023-07-20T07:21:21;4.97;;;3.70;;
75216;SDS011;63800;51.972;5.682;2023-07-20T07:23:46;4.80;;;3.63;;
75216;SDS011;63800;51.972;5.682;2023-07-20T07:26:12;4.47;;;3.17;;
75216;SDS011;63800;51.972;5.682;2023-07-20T07:28:37;4.22;;;3.28;;
75216;SDS011;63800;51.972;5.682;2023-07-20T07:31:06;3.97;;;3.50;;
75216;SDS011;63800;51.972;5.682;2023-07-20T07:33:32;4.05;;;3.65;;
75216;SDS011;63800;51.972;5.682;2023-07-20T07:35:57;4.93;;;3.50;;
75216;SDS011;63800;51.972;5.682;2023-07-20T07:38:23;4.50;;;3.67;;
75216;SDS011;63800;51.972;5.682;2023-07-20T07:40:48;4.25;;;3.38;;
75216;SDS011;63800;51.972;5.682;2023-07-20T07:43:14;4.55;;;3.22;;
75216;SDS011;63800;51.972;5.682;2023-07-20T07:45:39;4.22;;;3.33;;
75216;SDS011;63800;51.972;5.682;2023-07-20T07:48:05;4.68;;;3.38;;
75216;SDS011;63800;51.972;5.682;2023-07-20T07:50:32;3.08;;;2.83;;
75216;SDS011;63800;51.972;5.682;2023-07-20T07:52:58;3.90;;;3.17;;
75216;SDS011;63800;51.972;5.682;2023-07-20T07:55:24;2.80;;;2.13;;
75216;SDS011;63800;51.972;5.682;2023-07-20T07:57:51;3.15;;;2.85;;
75216;SDS011;63800;51.972;5.682;2023-07-20T08:00:17;2.95;;;2.42;;
75216;SDS011;63800;51.972;5.682;2023-07-20T08:02:44;2.63;;;2.28;;
75216;SDS011;63800;51.972;5.682;2023-07-20T08:05:11;1.80;;;1.60;;
75216;SDS011;63800;51.972;5.682;2023-07-20T08:07:37;2.80;;;1.70;;
75216;SDS011;63800;51.972;5.682;2023-07-20T08:10:03;2.17;;;1.50;;
75216;SDS011;63800;51.972;5.682;2023-07-20T08:12:29;2.22;;;2.03;;
75216;SDS011;63800;51.972;5.682;2023-07-20T08:14:55;2.15;;;1.60;;
75216;SDS011;63800;51.972;5.682;2023-07-20T08:17:20;1.60;;;1.50;;
75216;SDS011;63800;51.972;5.682;2023-07-20T08:19:46;1.98;;;1.60;;
75216;SDS011;63800;51.972;5.682;2023-07-20T08:22:11;1.90;;;1.73;;
75216;SDS011;63800;51.972;5.682;2023-07-20T08:24:40;2.63;;;1.63;;
75216;SDS011;63800;51.972;5.682;2023-07-20T08:27:06;1.77;;;1.60;;
75216;SDS011;63800;51.972;5.682;2023-07-20T08:29:33;3.13;;;1.70;;
75216;SDS011;63800;51.972;5.682;2023-07-20T08:31:59;3.97;;;2.03;;
75216;SDS011;63800;51.972;5.682;2023-07-20T08:34:25;2.45;;;1.85;;
75216;SDS011;63800;51.972;5.682;2023-07-20T08:36:50;1.83;;;1.70;;
75216;SDS011;63800;51.972;5.682;2023-07-20T08:39:16;1.88;;;1.65;;
75216;SDS011;63800;51.972;5.682;2023-07-20T08:41:44;2.20;;;1.80;;
75216;SDS011;63800;51.972;5.682;2023-07-20T08:44:11;2.55;;;2.10;;
75216;SDS011;63800;51.972;5.682;2023-07-20T08:46:38;2.25;;;2.05;;
75216;SDS011;63800;51.972;5.682;2023-07-20T08:49:03;1.88;;;1.67;;
75216;SDS011;63800;51.972;5.682;2023-07-20T08:51:31;1.10;;;1.00;;
75216;SDS011;63800;51.972;5.682;2023-07-20T08:53:58;1.10;;;1.00;;
75216;SDS011;63800;51.972;5.682;2023-07-20T08:56:23;1.45;;;1.20;;
75216;SDS011;63800;51.972;5.682;2023-07-20T08:58:51;1.77;;;1.13;;
75216;SDS011;63800;51.972;5.682;2023-07-20T09:01:18;2.28;;;1.25;;
75216;SDS011;63800;51.972;5.682;2023-07-20T09:03:45;2.90;;;1.95;;
75216;SDS011;63800;51.972;5.682;2023-07-20T09:06:11;2.50;;;2.30;;
75216;SDS011;63800;51.972;5.682;2023-07-20T09:08:38;2.72;;;2.20;;
75216;SDS011;63800;51.972;5.682;2023-07-20T09:11:04;2.33;;;2.00;;
75216;SDS011;63800;51.972;5.682;2023-07-20T09:13:29;2.75;;;2.08;;
75216;SDS011;63800;51.972;5.682;2023-07-20T09:15:54;1.75;;;1.58;;
75216;SDS011;63800;51.972;5.682;2023-07-20T09:18:38;1.38;;;1.27;;
75216;SDS011;63800;51.972;5.682;2023-07-20T09:21:06;1.63;;;1.27;;
75216;SDS011;63800;51.972;5.682;2023-07-20T09:23:38;1.20;;;1.10;;
75216;SDS011;63800;51.972;5.682;2023-07-20T09:26:10;1.65;;;1.40;;
75216;SDS011;63800;51.972;5.682;2023-07-20T09:28:44;2.47;;;1.23;;
75216;SDS011;63800;51.972;5.682;2023-07-20T09:31:17;1.45;;;1.20;;
75216;SDS011;63800;51.972;5.682;2023-07-20T09:33:44;1.80;;;1.38;;
75216;SDS011;63800;51.972;5.682;2023-07-20T09:36:11;1.55;;;1.42;;
75216;SDS011;63800;51.972;5.682;2023-07-20T09:38:36;1.48;;;1.38;;
75216;SDS011;63800;51.972;5.682;2023-07-20T09:41:04;1.23;;;1.08;;
75216;SDS011;63800;51.972;5.682;2023-07-20T09:43:31;1.00;;;1.00;;
75216;SDS011;63800;51.972;5.682;2023-07-20T09:45:59;1.55;;;1.30;;
75216;SDS011;63800;51.972;5.682;2023-07-20T09:48:25;1.33;;;1.13;;
75216;SDS011;63800;51.972;5.682;2023-07-20T09:50:54;1.60;;;1.50;;
75216;SDS011;63800;51.972;5.682;2023-07-20T09:53:20;2.17;;;1.30;;
75216;SDS011;63800;51.972;5.682;2023-07-20T09:55:46;1.30;;;1.20;;
75216;SDS011;63800;51.972;5.682;2023-07-20T09:58:13;1.77;;;1.30;;
75216;SDS011;63800;51.972;5.682;2023-07-20T10:00:40;1.88;;;1.13;;
75216;SDS011;63800;51.972;5.682;2023-07-20T10:03:08;1.98;;;1.20;;
75216;SDS011;63800;51.972;5.682;2023-07-20T10:05:39;2.13;;;1.10;;
75216;SDS011;63800;51.972;5.682;2023-07-20T10:08:09;1.65;;;1.20;;
75216;SDS011;63800;51.972;5.682;2023-07-20T10:10:37;1.23;;;1.10;;
75216;SDS011;63800;51.972;5.682;2023-07-20T10:13:06;1.40;;;1.00;;
75216;SDS011;63800;51.972;5.682;2023-07-20T10:15:36;1.15;;;1.00;;
75216;SDS011;63800;51.972;5.682;2023-07-20T10:20:53;1.25;;;1.00;;
75216;SDS011;63800;51.972;5.682;2023-07-20T10:23:21;0.98;;;0.90;;
75216;SDS011;63800;51.972;5.682;2023-07-20T10:25:47;1.77;;;1.30;;
75216;SDS011;63800;51.972;5.682;2023-07-20T10:28:13;2.30;;;1.30;;
75216;SDS011;63800;51.972;5.682;2023-07-20T10:30:39;1.23;;;1.10;;
75216;SDS011;63800;51.972;5.682;2023-07-20T10:33:05;1.70;;;1.00;;
75216;SDS011;63800;51.972;5.682;2023-07-20T10:35:31;1.33;;;1.08;;
75216;SDS011;63800;51.972;5.682;2023-07-20T10:38:16;2.47;;;1.30;;
75216;SDS011;63800;51.972;5.682;2023-07-20T10:40:41;1.55;;;1.25;;
75216;SDS011;63800;51.972;5.682;2023-07-20T10:43:07;1.40;;;1.30;;
75216;SDS011;63800;51.972;5.682;2023-07-20T10:48:14;1.30;;;1.20;;
75216;SDS011;63800;51.972;5.682;2023-07-20T10:50:41;1.35;;;1.20;;
75216;SDS011;63800;51.972;5.682;2023-07-20T10:53:11;2.17;;;1.25;;
75216;SDS011;63800;51.972;5.682;2023-07-20T10:55:43;1.55;;;1.20;;
75216;SDS011;63800;51.972;5.682;2023-07-20T10:58:11;1.20;;;1.10;;
75216;SDS011;63800;51.972;5.682;2023-07-20T11:00:55;1.10;;;1.00;;
75216;SDS011;63800;51.972;5.682;2023-07-20T11:03:40;1.30;;;1.20;;
75216;SDS011;63800;51.972;5.682;2023-07-20T11:08:54;9.27;;;1.88;;
75216;SDS011;63800;51.972;5.682;2023-07-20T11:11:30;1.38;;;1.27;;
75216;SDS011;63800;51.972;5.682;2023-07-20T11:13:57;2.03;;;1.33;;
75216;SDS011;63800;51.972;5.682;2023-07-20T11:16:33;2.70;;;1.40;;
75216;SDS011;63800;51.972;5.682;2023-07-20T11:19:25;1.50;;;1.40;;
75216;SDS011;63800;51.972;5.682;2023-07-20T11:21:52;1.70;;;1.10;;
75216;SDS011;63800;51.972;5.682;2023-07-20T11:24:18;1.35;;;1.00;;
75216;SDS011;63800;51.972;5.682;2023-07-20T11:26:49;1.52;;;1.20;;
75216;SDS011;63800;51.972;5.682;2023-07-20T11:29:16;2.20;;;1.20;;
75216;SDS011;63800;51.972;5.682;2023-07-20T11:31:43;1.63;;;1.27;;
75216;SDS011;63800;51.972;5.682;2023-07-20T11:34:10;1.40;;;1.30;;
75216;SDS011;63800;51.972;5.682;2023-07-20T11:36:38;1.30;;;1.20;;
75216;SDS011;63800;51.972;5.682;2023-07-20T11:39:13;2.20;;;1.40;;
75216;SDS011;63800;51.972;5.682;2023-07-20T11:41:49;1.85;;;1.23;;
75216;SDS011;63800;51.972;5.682;2023-07-20T11:44:16;1.88;;;1.50;;
75216;SDS011;63800;51.972;5.682;2023-07-20T11:46:43;2.35;;;1.33;;
75216;SDS011;63800;51.972;5.682;2023-07-20T11:49:11;1.77;;;1.42;;
75216;SDS011;63800;51.972;5.682;2023-07-20T11:51:38;1.98;;;1.20;;
75216;SDS011;63800;51.972;5.682;2023-07-20T11:54:05;2.08;;;1.40;;
75216;SDS011;63800;51.972;5.682;2023-07-20T11:56:32;1.25;;;1.15;;
75216;SDS011;63800;51.972;5.682;2023-07-20T11:58:58;2.30;;;1.60;;
75216;SDS011;63800;51.972;5.682;2023-07-20T12:01:26;1.48;;;1.05;;
75216;SDS011;63800;51.972;5.682;2023-07-20T12:04:00;1.58;;;1.13;;
75216;SDS011;63800;51.972;5.682;2023-07-20T12:08:56;1.08;;;0.98;;
75216;SDS011;63800;51.972;5.682;2023-07-20T12:11:37;1.17;;;1.08;;
75216;SDS011;63800;51.972;5.682;2023-07-20T12:14:04;1.50;;;1.10;;
75216;SDS011;63800;51.972;5.682;2023-07-20T12:16:32;1.17;;;1.08;;
75216;SDS011;63800;51.972;5.682;2023-07-20T12:19:02;1.10;;;1.00;;
75216;SDS011;63800;51.972;5.682;2023-07-20T12:21:28;0.98;;;0.90;;
75216;SDS011;63800;51.972;5.682;2023-07-20T12:23:56;1.00;;;0.90;;
75216;SDS011;63800;51.972;5.682;2023-07-20T12:26:23;1.15;;;0.90;;
75216;SDS011;63800;51.972;5.682;2023-07-20T12:28:49;1.55;;;1.10;;
75216;SDS011;63800;51.972;5.682;2023-07-20T12:31:15;1.30;;;1.20;;
75216;SDS011;63800;51.972;5.682;2023-07-20T12:33:40;2.45;;;1.10;;
75216;SDS011;63800;51.972;5.682;2023-07-20T12:36:07;1.38;;;1.20;;
75216;SDS011;63800;51.972;5.682;2023-07-20T12:38:33;1.60;;;1.10;;
75216;SDS011;63800;51.972;5.682;2023-07-20T12:41:00;1.52;;;1.10;;
75216;SDS011;63800;51.972;5.682;2023-07-20T12:43:26;1.20;;;1.10;;
75216;SDS011;63800;51.972;5.682;2023-07-20T12:45:52;1.20;;;1.05;;
75216;SDS011;63800;51.972;5.682;2023-07-20T12:48:18;2.00;;;1.20;;
75216;SDS011;63800;51.972;5.682;2023-07-20T12:50:43;1.58;;;1.40;;
75216;SDS011;63800;51.972;5.682;2023-07-20T12:53:08;1.58;;;1.48;;
75216;SDS011;63800;51.972;5.682;2023-07-20T12:55:34;1.30;;;1.20;;
75216;SDS011;63800;51.972;5.682;2023-07-20T12:57:59;1.50;;;1.40;;
75216;SDS011;63800;51.972;5.682;2023-07-20T13:00:25;1.63;;;1.52;;
75216;SDS011;63800;51.972;5.682;2023-07-20T13:02:51;2.33;;;1.40;;
75216;SDS011;63800;51.972;5.682;2023-07-20T13:05:16;1.40;;;1.10;;
75216;SDS011;63800;51.972;5.682;2023-07-20T13:07:42;1.25;;;1.15;;
75216;SDS011;63800;51.972;5.682;2023-07-20T13:10:08;1.30;;;1.20;;
75216;SDS011;63800;51.972;5.682;2023-07-20T13:12:35;1.40;;;1.30;;
75216;SDS011;63800;51.972;5.682;2023-07-20T13:15:08;1.55;;;1.00;;
75216;SDS011;63800;51.972;5.682;2023-07-20T13:20:00;1.20;;;1.00;;
75216;SDS011;63800;51.972;5.682;2023-07-20T13:22:26;1.98;;;1.08;;
75216;SDS011;63800;51.972;5.682;2023-07-20T13:24:52;1.40;;;1.30;;
75216;SDS011;63800;51.972;5.682;2023-07-20T13:27:18;1.27;;;1.00;;
75216;SDS011;63800;51.972;5.682;2023-07-20T13:29:44;1.80;;;1.20;;
75216;SDS011;63800;51.972;5.682;2023-07-20T13:32:12;2.03;;;1.10;;
75216;SDS011;63800;51.972;5.682;2023-07-20T13:34:38;1.33;;;1.20;;
75216;SDS011;63800;51.972;5.682;2023-07-20T13:37:03;1.42;;;1.30;;
75216;SDS011;63800;51.972;5.682;2023-07-20T13:39:29;1.23;;;1.20;;
75216;SDS011;63800;51.972;5.682;2023-07-20T13:41:55;1.35;;;1.00;;
75216;SDS011;63800;51.972;5.682;2023-07-20T13:44:20;1.20;;;1.10;;
75216;SDS011;63800;51.972;5.682;2023-07-20T13:46:47;1.17;;;1.08;;
75216;SDS011;63800;51.972;5.682;2023-07-20T13:49:12;1.20;;;1.00;;
75216;SDS011;63800;51.972;5.682;2023-07-20T13:51:39;1.25;;;1.00;;
75216;SDS011;63800;51.972;5.682;2023-07-20T13:54:05;1.20;;;1.00;;
75216;SDS011;63800;51.972;5.682;2023-07-20T13:56:31;2.42;;;1.27;;
75216;SDS011;63800;51.972;5.682;2023-07-20T13:58:56;1.40;;;1.30;;
75216;SDS011;63800;51.972;5.682;2023-07-20T14:01:22;1.25;;;1.10;;
75216;SDS011;63800;51.972;5.682;2023-07-20T14:03:49;3.05;;;1.27;;
75216;SDS011;63800;51.972;5.682;2023-07-20T14:06:15;1.88;;;1.25;;
75216;SDS011;63800;51.972;5.682;2023-07-20T14:08:41;1.40;;;1.20;;
75216;SDS011;63800;51.972;5.682;2023-07-20T14:11:07;1.48;;;1.20;;
75216;SDS011;63800;51.972;5.682;2023-07-20T14:13:32;1.70;;;1.20;;
75216;SDS011;63800;51.972;5.682;2023-07-20T14:15:58;1.52;;;1.40;;
75216;SDS011;63800;51.972;5.682;2023-07-20T14:18:23;1.65;;;1.25;;
75216;SDS011;63800;51.972;5.682;2023-07-20T14:20:49;1.83;;;1.52;;
75216;SDS011;63800;51.972;5.682;2023-07-20T14:23:14;1.88;;;1.30;;
75216;SDS011;63800;51.972;5.682;2023-07-20T14:25:40;1.60;;;1.05;;
75216;SDS011;63800;51.972;5.682;2023-07-20T14:28:05;1.75;;;1.30;;
75216;SDS011;63800;51.972;5.682;2023-07-20T14:30:32;1.40;;;1.30;;
75216;SDS011;63800;51.972;5.682;2023-07-20T14:32:57;1.73;;;1.20;;
75216;SDS011;63800;51.972;5.682;2023-07-20T14:35:23;4.13;;;1.67;;
75216;SDS011;63800;51.972;5.682;2023-07-20T14:37:49;2.58;;;1.80;;
75216;SDS011;63800;51.972;5.682;2023-07-20T14:40:15;2.58;;;1.70;;
75216;SDS011;63800;51.972;5.682;2023-07-20T14:42:40;1.63;;;1.40;;
75216;SDS011;63800;51.972;5.682;2023-07-20T14:45:06;1.40;;;1.27;;
75216;SDS011;63800;51.972;5.682;2023-07-20T14:47:32;1.95;;;1.30;;
75216;SDS011;63800;51.972;5.682;2023-07-20T14:50:00;1.15;;;1.05;;
75216;SDS011;63800;51.972;5.682;2023-07-20T14:52:28;1.63;;;1.45;;
75216;SDS011;63800;51.972;5.682;2023-07-20T14:54:54;1.80;;;1.10;;
75216;SDS011;63800;51.972;5.682;2023-07-20T14:57:20;1.48;;;1.38;;
75216;SDS011;63800;51.972;5.682;2023-07-20T14:59:48;6.28;;;2.03;;
75216;SDS011;63800;51.972;5.682;2023-07-20T15:02:17;1.27;;;1.17;;
75216;SDS011;63800;51.972;5.682;2023-07-20T15:04:46;2.67;;;1.67;;
75216;SDS011;63800;51.972;5.682;2023-07-20T15:09:46;1.35;;;1.25;;
75216;SDS011;63800;51.972;5.682;2023-07-20T15:12:12;1.55;;;1.45;;
75216;SDS011;63800;51.972;5.682;2023-07-20T15:14:41;1.77;;;1.50;;